Time;durP1;ratioP1;P1;durP2;ratioP2;P2;SDS_P1;SDS_P2;PMS_P1;PMS_P2;Temp;Humidity;BMP_temperature;BMP_pressure;BME280_temperature;BME280_humidity;BME280_pressure;Samples;Min_cycle;Max_cycle;Signal;HPM_P1;HPM_P2
2020/12/05 00:04:05;;;;;;;22.15;12.13;;;;;;;;;;5057181;28;19924;-55
2020/12/05 00:06:31;;;;;;;30.58;14.60;;;;;;;;;;5064318;28;20089;-57
2020/12/05 00:08:57;;;;;;;27.83;14.60;;;;;;;;;;5067609;28;20082;-56
2020/12/05 00:11:26;;;;;;;31.00;15.88;;;;;;;;;;5065071;28;20119;-52
2020/12/05 00:13:52;;;;;;;37.58;17.58;;;;;;;;;;5049265;28;20045;-57
2020/12/05 00:16:18;;;;;;;36.78;17.50;;;;;;;;;;5047159;28;20647;-56
2020/12/05 00:18:44;;;;;;;40.38;18.10;;;;;;;;;;5048235;28;20416;-58
2020/12/05 00:21:10;;;;;;;32.80;16.10;;;;;;;;;;5048537;28;20299;-59
2020/12/05 00:23:36;;;;;;;36.53;17.00;;;;;;;;;;5050217;28;20044;-55
2020/12/05 00:26:02;;;;;;;27.50;14.55;;;;;;;;;;5068602;28;20431;-58
2020/12/05 00:28:28;;;;;;;28.73;15.07;;;;;;;;;;5068474;28;20116;-55
2020/12/05 00:30:54;;;;;;;37.67;17.00;;;;;;;;;;5061879;28;20036;-55
2020/12/05 00:33:20;;;;;;;31.88;15.52;;;;;;;;;;5066212;28;20036;-58
2020/12/05 00:35:46;;;;;;;34.58;17.88;;;;;;;;;;5068476;28;20040;-56
2020/12/05 00:38:11;;;;;;;35.97;17.30;;;;;;;;;;5067204;28;20045;-57
2020/12/05 00:40:37;;;;;;;34.58;15.95;;;;;;;;;;5052791;28;20635;-56
2020/12/05 00:43:03;;;;;;;27.83;13.48;;;;;;;;;;5048312;28;20642;-56
2020/12/05 00:45:29;;;;;;;27.55;13.98;;;;;;;;;;5064921;28;20044;-57
2020/12/05 00:47:55;;;;;;;;;;;;;;;;;;5068251;28;20161;-55
2020/12/05 00:50:21;;;;;;;25.35;12.90;;;;;;;;;;5065657;28;20007;-56
2020/12/05 00:52:47;;;;;;;27.90;13.98;;;;;;;;;;5048068;28;20040;-57
2020/12/05 00:55:13;;;;;;;28.08;13.90;;;;;;;;;;5048150;28;20067;-57
2020/12/05 00:57:39;;;;;;;22.67;12.35;;;;;;;;;;5047613;28;20078;-57
2020/12/05 01:00:08;;;;;;;24.92;12.60;;;;;;;;;;5055583;28;20033;-57
2020/12/05 01:02:35;;;;;;;24.70;13.23;;;;;;;;;;5067125;28;20055;-57
2020/12/05 01:05:00;;;;;;;29.38;14.23;;;;;;;;;;5058334;28;20045;-53
2020/12/05 01:07:27;;;;;;;30.27;15.27;;;;;;;;;;5047301;28;20497;-56
2020/12/05 01:09:54;;;;;;;30.25;14.88;;;;;;;;;;5066081;28;20597;-53
2020/12/05 01:12:20;;;;;;;27.55;12.70;;;;;;;;;;5067645;28;20719;-55
2020/12/05 01:14:46;;;;;;;29.92;13.38;;;;;;;;;;5066361;28;20037;-58
2020/12/05 01:17:12;;;;;;;33.60;14.07;;;;;;;;;;5066714;28;20041;-57
2020/12/05 01:19:38;;;;;;;26.58;12.68;;;;;;;;;;5062774;28;20037;-57
2020/12/05 01:22:04;;;;;;;27.35;11.68;;;;;;;;;;5047725;28;20516;-54
2020/12/05 01:24:30;;;;;;;27.80;13.70;;;;;;;;;;5047608;28;20529;-55
2020/12/05 01:26:56;;;;;;;24.17;11.80;;;;;;;;;;5047505;28;20710;-56
2020/12/05 01:29:22;;;;;;;28.95;13.32;;;;;;;;;;5047783;28;20552;-57
2020/12/05 01:31:48;;;;;;;26.77;12.70;;;;;;;;;;5066649;28;20703;-54
2020/12/05 01:34:15;;;;;;;30.23;13.65;;;;;;;;;;5067113;28;20040;-56
2020/12/05 01:36:45;;;;;;;21.88;11.75;;;;;;;;;;5066557;28;20040;-56
2020/12/05 01:39:11;;;;;;;28.05;12.40;;;;;;;;;;5066525;28;20090;-57
2020/12/05 01:41:37;;;;;;;25.55;12.90;;;;;;;;;;5067109;28;20524;-55
2020/12/05 01:44:03;;;;;;;21.23;11.02;;;;;;;;;;5066345;28;20128;-54
2020/12/05 01:46:36;;;;;;;25.42;12.00;;;;;;;;;;5065908;28;20040;-55
2020/12/05 01:49:02;;;;;;;24.40;11.18;;;;;;;;;;5066539;28;20039;-57
2020/12/05 01:51:29;;;;;;;23.50;11.55;;;;;;;;;;5056172;28;20033;-54
2020/12/05 01:53:56;;;;;;;19.15;9.80;;;;;;;;;;5046907;28;20072;-53
2020/12/05 01:56:23;;;;;;;19.95;10.20;;;;;;;;;;5046033;28;20071;-57
2020/12/05 01:58:49;;;;;;;20.80;10.13;;;;;;;;;;5046110;28;20040;-56
2020/12/05 02:01:15;;;;;;;19.48;9.90;;;;;;;;;;5044877;28;20628;-54
2020/12/05 02:03:42;;;;;;;23.67;11.20;;;;;;;;;;5050621;28;21430;-56
2020/12/05 02:06:19;;;;;;;19.17;10.30;;;;;;;;;;5049601;28;20119;-53
2020/12/05 02:08:56;;;;;;;25.35;11.77;;;;;;;;;;5065342;28;20044;-56
2020/12/05 02:11:24;;;;;;;25.40;11.85;;;;;;;;;;5064867;28;20037;-53
2020/12/05 02:13:52;;;;;;;18.27;9.15;;;;;;;;;;5066158;28;20507;-55
2020/12/05 02:16:18;;;;;;;18.45;9.60;;;;;;;;;;5061235;28;20073;-52
2020/12/05 02:18:45;;;;;;;18.23;9.63;;;;;;;;;;5045769;28;20060;-55
2020/12/05 02:21:12;;;;;;;20.90;10.43;;;;;;;;;;5046414;28;20033;-57
2020/12/05 02:23:39;;;;;;;17.17;9.05;;;;;;;;;;5046109;28;20041;-54
2020/12/05 02:26:05;;;;;;;19.77;9.45;;;;;;;;;;5046383;28;20029;-55
2020/12/05 02:28:32;;;;;;;18.42;8.60;;;;;;;;;;5051921;28;20036;-55
2020/12/05 02:30:58;;;;;;;19.05;8.95;;;;;;;;;;5064524;28;20068;-56
2020/12/05 02:33:24;;;;;;;18.08;8.95;;;;;;;;;;5060366;28;20068;-54
2020/12/05 02:35:50;;;;;;;;;;;;;;;;;;5060669;28;20029;-55
2020/12/05 02:38:22;;;;;;;18.30;9.30;;;;;;;;;;5061523;28;19917;-53
2020/12/05 02:40:48;;;;;;;22.73;11.70;;;;;;;;;;5045716;28;20048;-53
2020/12/05 02:43:14;;;;;;;23.60;11.05;;;;;;;;;;5044710;28;20036;-53
2020/12/05 02:45:40;;;;;;;22.50;11.13;;;;;;;;;;5045594;28;20120;-53
2020/12/05 02:48:09;;;;;;;20.65;10.68;;;;;;;;;;5043590;28;20037;-53
2020/12/05 02:50:35;;;;;;;20.48;10.23;;;;;;;;;;5048243;28;20039;-57
2020/12/05 02:53:01;;;;;;;30.10;11.70;;;;;;;;;;5064874;28;20043;-54
2020/12/05 02:55:27;;;;;;;18.67;9.35;;;;;;;;;;5064518;28;20487;-54
2020/12/05 02:57:54;;;;;;;20.20;9.32;;;;;;;;;;5063272;28;20124;-55
2020/12/05 03:00:21;;;;;;;16.35;8.07;;;;;;;;;;5064352;28;20144;-57
2020/12/05 03:02:46;;;;;;;18.15;9.43;;;;;;;;;;5065233;28;20100;-53
2020/12/05 03:05:12;;;;;;;14.13;7.40;;;;;;;;;;5064274;28;20144;-54
2020/12/05 03:07:38;;;;;;;15.52;7.55;;;;;;;;;;5060817;28;20082;-57
2020/12/05 03:10:04;;;;;;;16.98;7.88;;;;;;;;;;5044867;28;20061;-55
2020/12/05 03:12:31;;;;;;;16.35;7.78;;;;;;;;;;5045237;28;20117;-58
2020/12/05 03:14:56;;;;;;;14.77;8.40;;;;;;;;;;5044749;28;20586;-55
2020/12/05 03:17:22;;;;;;;13.30;7.38;;;;;;;;;;5045391;28;20194;-56
2020/12/05 03:19:48;;;;;;;14.48;6.97;;;;;;;;;;5044874;28;20136;-56
2020/12/05 03:22:14;;;;;;;13.30;6.80;;;;;;;;;;5045251;28;20040;-54
2020/12/05 03:24:40;;;;;;;16.58;7.10;;;;;;;;;;5044119;28;20049;-55
2020/12/05 03:27:06;;;;;;;10.23;5.57;;;;;;;;;;5059409;28;20043;-54
2020/12/05 03:29:32;;;;;;;11.77;5.72;;;;;;;;;;5064766;28;20094;-56
2020/12/05 03:32:07;;;;;;;15.68;6.47;;;;;;;;;;5064917;28;20562;-57
2020/12/05 03:34:33;;;;;;;10.60;5.90;;;;;;;;;;5064973;28;20036;-57
2020/12/05 03:36:59;;;;;;;16.73;7.30;;;;;;;;;;5052068;28;20655;-53
2020/12/05 03:39:25;;;;;;;16.13;7.18;;;;;;;;;;5045387;28;20578;-56
2020/12/05 03:41:51;;;;;;;12.75;6.00;;;;;;;;;;5048213;28;20120;-55
2020/12/05 03:44:17;;;;;;;11.70;5.63;;;;;;;;;;5048432;28;20037;-56
2020/12/05 03:46:43;;;;;;;11.43;5.15;;;;;;;;;;5061074;28;20044;-56
2020/12/05 03:49:08;;;;;;;10.10;5.20;;;;;;;;;;5069401;28;20033;-55
2020/12/05 03:51:34;;;;;;;11.38;6.00;;;;;;;;;;5068599;28;20050;-57
2020/12/05 03:54:00;;;;;;;12.07;5.63;;;;;;;;;;5069055;28;20115;-54
2020/12/05 03:56:26;;;;;;;13.63;6.45;;;;;;;;;;5066480;28;20314;-58
2020/12/05 03:58:54;;;;;;;;;;;;;;;;;;5050017;28;20036;-58
2020/12/05 04:01:21;;;;;;;9.45;4.97;;;;;;;;;;5048786;28;19919;-57
2020/12/05 04:03:47;;;;;;;9.48;5.10;;;;;;;;;;5048797;28;20047;-57
2020/12/05 04:06:13;;;;;;;10.27;5.00;;;;;;;;;;5049158;28;20037;-58
2020/12/05 04:08:40;;;;;;;15.55;6.10;;;;;;;;;;5059035;28;20067;-56
2020/12/05 04:11:06;;;;;;;13.82;5.22;;;;;;;;;;5068385;28;20796;-57
2020/12/05 04:13:32;;;;;;;12.02;5.95;;;;;;;;;;5069383;28;20044;-56
2020/12/05 04:15:58;;;;;;;11.30;5.82;;;;;;;;;;5068314;28;20454;-52
2020/12/05 04:18:24;;;;;;;13.75;6.15;;;;;;;;;;5068334;28;20090;-58
2020/12/05 04:20:50;;;;;;;17.73;6.57;;;;;;;;;;5068360;28;20044;-57
2020/12/05 04:23:16;;;;;;;12.25;5.57;;;;;;;;;;5066048;28;20089;-57
2020/12/05 04:25:42;;;;;;;12.52;5.53;;;;;;;;;;5049054;28;20040;-52
2020/12/05 04:28:08;;;;;;;12.60;5.35;;;;;;;;;;5063807;28;20027;-52
2020/12/05 04:30:34;;;;;;;8.90;5.15;;;;;;;;;;5065930;28;20048;-50
2020/12/05 04:33:00;;;;;;;11.30;5.57;;;;;;;;;;5067878;28;20036;-52
2020/12/05 04:35:26;;;;;;;14.70;6.57;;;;;;;;;;5066626;28;20113;-53
2020/12/05 04:37:52;;;;;;;13.18;5.63;;;;;;;;;;5067355;28;20079;-55
2020/12/05 04:40:18;;;;;;;13.88;6.15;;;;;;;;;;5068284;28;20044;-56
2020/12/05 04:42:48;;;;;;;9.13;5.30;;;;;;;;;;5067926;28;20043;-51
2020/12/05 04:45:14;;;;;;;9.02;4.53;;;;;;;;;;5064950;28;20074;-56
2020/12/05 04:47:41;;;;;;;8.38;4.45;;;;;;;;;;5048183;28;20041;-55
2020/12/05 04:50:08;;;;;;;12.77;5.60;;;;;;;;;;5049942;28;20032;-57
2020/12/05 04:52:40;;;;;;;12.77;5.18;;;;;;;;;;5051636;28;20132;-51
2020/12/05 04:55:06;;;;;;;9.80;5.00;;;;;;;;;;5049285;28;20044;-51
2020/12/05 04:57:39;;;;;;;14.27;6.57;;;;;;;;;;5048771;28;20037;-56
2020/12/05 05:00:06;;;;;;;9.48;4.43;;;;;;;;;;5063531;28;20037;-56
2020/12/05 05:02:34;;;;;;;9.68;5.18;;;;;;;;;;5067350;28;20040;-52
2020/12/05 05:05:00;;;;;;;9.23;4.55;;;;;;;;;;5068162;28;20075;-57
2020/12/05 05:07:28;;;;;;;10.90;5.07;;;;;;;;;;5068530;28;20055;-54
2020/12/05 05:10:02;;;;;;;9.10;5.03;;;;;;;;;;5057534;28;20539;-54
2020/12/05 05:12:32;;;;;;;7.60;4.30;;;;;;;;;;5048007;28;20041;-55
2020/12/05 05:14:59;;;;;;;9.35;4.65;;;;;;;;;;5047956;28;20634;-56
2020/12/05 05:17:25;;;;;;;8.30;4.82;;;;;;;;;;5047441;28;20382;-53
2020/12/05 05:19:51;;;;;;;6.53;4.07;;;;;;;;;;5068198;28;20033;-54
2020/12/05 05:22:21;;;;;;;9.68;4.82;;;;;;;;;;5055535;28;20045;-58
2020/12/05 05:25:00;;;;;;;6.97;4.35;;;;;;;;;;5067899;28;20662;-53
2020/12/05 05:27:26;;;;;;;6.93;4.18;;;;;;;;;;5067969;28;20094;-56
2020/12/05 05:29:51;;;;;;;9.15;3.80;;;;;;;;;;5064110;28;20037;-56
2020/12/05 05:32:27;;;;;;;8.48;3.80;;;;;;;;;;5047518;28;20037;-55
2020/12/05 05:35:10;;;;;;;9.77;3.70;;;;;;;;;;5047892;28;20075;-51
2020/12/05 05:37:36;;;;;;;5.95;3.78;;;;;;;;;;5047765;28;20052;-53
2020/12/05 05:40:05;;;;;;;7.55;3.30;;;;;;;;;;5047517;28;20547;-52
2020/12/05 05:42:32;;;;;;;5.28;3.42;;;;;;;;;;5048235;28;20115;-54
2020/12/05 05:45:17;;;;;;;6.53;3.38;;;;;;;;;;5047917;28;20072;-56
2020/12/05 05:47:45;;;;;;;6.68;3.50;;;;;;;;;;5048376;28;20048;-54
2020/12/05 05:50:34;;;;;;;8.13;3.53;;;;;;;;;;5059910;28;20032;-56
2020/12/05 05:53:01;;;;;;;6.68;2.83;;;;;;;;;;5061410;28;20044;-57
2020/12/05 05:55:46;;;;;;;5.47;2.70;;;;;;;;;;5067200;28;20040;-57
2020/12/05 05:58:13;;;;;;;5.38;3.15;;;;;;;;;;5066857;28;20044;-58
2020/12/05 06:00:40;;;;;;;6.63;3.38;;;;;;;;;;5057580;28;20052;-54
2020/12/05 06:03:22;;;;;;;4.97;3.13;;;;;;;;;;5046281;28;20048;-51
2020/12/05 06:05:49;;;;;;;6.07;3.15;;;;;;;;;;5045820;28;20048;-55
2020/12/05 06:08:17;;;;;;;4.72;3.10;;;;;;;;;;5053114;28;20036;-56
2020/12/05 06:10:46;;;;;;;5.65;3.22;;;;;;;;;;5064877;28;20582;-57
2020/12/05 06:13:15;;;;;;;6.03;2.70;;;;;;;;;;5066281;28;20043;-57
2020/12/05 06:15:42;;;;;;;3.53;2.13;;;;;;;;;;5066183;28;20040;-57
2020/12/05 06:18:08;;;;;;;4.18;2.30;;;;;;;;;;5061012;28;20163;-53
2020/12/05 06:20:36;;;;;;;5.20;2.78;;;;;;;;;;5053003;28;20077;-57
2020/12/05 06:23:03;;;;;;;6.32;2.33;;;;;;;;;;5063794;28;20032;-55
2020/12/05 06:25:30;;;;;;;3.80;2.10;;;;;;;;;;5066365;28;20040;-56
2020/12/05 06:27:58;;;;;;;3.08;2.00;;;;;;;;;;5060874;28;20032;-56
2020/12/05 06:30:24;;;;;;;2.67;1.75;;;;;;;;;;5065000;28;20144;-57
2020/12/05 06:32:55;;;;;;;2.08;1.65;;;;;;;;;;5066438;28;20123;-56
2020/12/05 06:35:24;;;;;;;2.28;1.50;;;;;;;;;;5066132;28;20036;-58
2020/12/05 06:37:54;;;;;;;2.17;1.50;;;;;;;;;;5066318;28;20392;-54
2020/12/05 06:40:20;;;;;;;3.22;2.00;;;;;;;;;;5066232;28;20025;-54
2020/12/05 06:42:47;;;;;;;5.93;1.85;;;;;;;;;;5066390;28;20040;-57
2020/12/05 06:45:25;;;;;;;2.22;1.67;;;;;;;;;;5065623;28;20044;-56
2020/12/05 06:47:51;;;;;;;1.75;1.20;;;;;;;;;;5066132;28;20044;-57
2020/12/05 06:50:32;;;;;;;5.07;1.50;;;;;;;;;;5065043;28;20032;-55
2020/12/05 06:52:58;;;;;;;3.65;1.77;;;;;;;;;;5045644;28;20055;-52
2020/12/05 06:55:35;;;;;;;1.67;1.38;;;;;;;;;;5046063;28;20135;-57
2020/12/05 06:58:05;;;;;;;2.53;1.73;;;;;;;;;;5045854;28;20504;-53
2020/12/05 07:00:35;;;;;;;2.47;1.27;;;;;;;;;;5046940;28;20048;-57
2020/12/05 07:03:02;;;;;;;2.58;1.90;;;;;;;;;;5055328;28;20127;-56
2020/12/05 07:05:29;;;;;;;1.90;1.42;;;;;;;;;;5045307;28;20041;-58
2020/12/05 07:07:56;;;;;;;2.85;1.35;;;;;;;;;;5049714;28;20035;-56
2020/12/05 07:10:42;;;;;;;1.65;1.25;;;;;;;;;;5065293;28;20028;-54
2020/12/05 07:13:18;;;;;;;3.30;1.70;;;;;;;;;;5065673;28;20040;-55
2020/12/05 07:15:44;;;;;;;3.33;1.73;;;;;;;;;;5063464;28;20040;-55
2020/12/05 07:18:10;;;;;;;2.58;1.70;;;;;;;;;;5064262;28;20024;-59
2020/12/05 07:20:37;;;;;;;1.88;1.58;;;;;;;;;;5060630;28;20084;-52
2020/12/05 07:23:03;;;;;;;3.38;1.90;;;;;;;;;;5052879;28;20039;-57
2020/12/05 07:25:30;;;;;;;2.20;1.42;;;;;;;;;;5065440;28;20040;-55
2020/12/05 07:27:56;;;;;;;2.10;1.38;;;;;;;;;;5065675;28;20036;-55
2020/12/05 07:30:22;;;;;;;2.67;2.00;;;;;;;;;;5064332;28;20033;-56
2020/12/05 07:32:48;;;;;;;3.22;2.10;;;;;;;;;;5066151;28;20044;-57
2020/12/05 07:35:18;;;;;;;3.30;2.30;;;;;;;;;;5064945;28;20452;-54
2020/12/05 07:37:45;;;;;;;4.28;2.45;;;;;;;;;;5065477;28;20063;-52
2020/12/05 07:40:11;;;;;;;3.67;2.45;;;;;;;;;;5064590;28;20036;-54
2020/12/05 07:42:38;;;;;;;3.65;2.50;;;;;;;;;;5045699;28;20416;-56
2020/12/05 07:45:05;;;;;;;3.85;3.08;;;;;;;;;;5045467;28;20124;-54
2020/12/05 07:47:31;;;;;;;5.90;3.85;;;;;;;;;;5042786;28;20040;-50
2020/12/05 07:49:59;;;;;;;5.22;3.92;;;;;;;;;;5044420;28;20048;-54
2020/12/05 07:52:25;;;;;;;8.18;4.25;;;;;;;;;;5045678;28;20056;-55
2020/12/05 07:54:51;;;;;;;6.90;4.18;;;;;;;;;;5045102;28;20067;-58
2020/12/05 07:57:17;;;;;;;5.78;3.30;;;;;;;;;;5044928;28;20048;-55
2020/12/05 07:59:44;;;;;;;4.13;3.05;;;;;;;;;;5042954;28;20083;-55
2020/12/05 08:02:17;;;;;;;5.75;3.80;;;;;;;;;;5048052;28;20052;-52
2020/12/05 08:04:49;;;;;;;6.80;4.25;;;;;;;;;;5058012;28;20075;-56
2020/12/05 08:07:29;;;;;;;5.75;3.88;;;;;;;;;;5065306;28;20059;-52
2020/12/05 08:09:55;;;;;;;5.85;4.20;;;;;;;;;;5044644;28;20140;-50
2020/12/05 08:12:31;;;;;;;4.95;3.65;;;;;;;;;;5046084;28;20071;-56
2020/12/05 08:14:57;;;;;;;6.43;4.03;;;;;;;;;;5044729;28;20841;-58
2020/12/05 08:17:24;;;;;;;8.05;4.65;;;;;;;;;;5044203;28;20044;-57
2020/12/05 08:19:50;;;;;;;8.70;4.60;;;;;;;;;;5045065;28;20029;-56
2020/12/05 08:22:16;;;;;;;7.63;4.47;;;;;;;;;;5044837;28;20044;-57
2020/12/05 08:24:50;;;;;;;5.78;3.58;;;;;;;;;;5045648;28;20045;-58
2020/12/05 08:27:17;;;;;;;6.68;4.07;;;;;;;;;;5059152;28;20401;-59
2020/12/05 08:29:44;;;;;;;7.22;3.47;;;;;;;;;;5069117;28;20047;-57
2020/12/05 08:32:16;;;;;;;4.85;3.42;;;;;;;;;;5059950;28;20107;-59
2020/12/05 08:34:42;;;;;;;7.43;4.03;;;;;;;;;;5048695;28;20550;-58
2020/12/05 08:37:08;;;;;;;8.10;4.05;;;;;;;;;;5059730;28;20036;-58
2020/12/05 08:39:39;;;;;;;6.63;3.97;;;;;;;;;;5067892;28;20207;-56
2020/12/05 08:42:05;;;;;;;7.85;4.15;;;;;;;;;;5064188;28;20033;-56
2020/12/05 08:44:31;;;;;;;5.80;3.53;;;;;;;;;;5048937;28;20049;-55
2020/12/05 08:47:01;;;;;;;6.32;3.72;;;;;;;;;;5062296;28;20091;-58
2020/12/05 08:49:27;;;;;;;7.80;4.20;;;;;;;;;;5068418;28;20041;-56
2020/12/05 08:51:53;;;;;;;10.73;4.53;;;;;;;;;;5068281;28;20194;-60
2020/12/05 08:54:19;;;;;;;5.93;4.10;;;;;;;;;;5048838;28;20094;-60
2020/12/05 08:56:46;;;;;;;7.82;4.07;;;;;;;;;;5048691;28;20135;-59
2020/12/05 08:59:12;;;;;;;7.38;3.88;;;;;;;;;;5047974;28;20033;-60
2020/12/05 09:01:39;;;;;;;9.23;5.22;;;;;;;;;;5058512;28;20151;-57
2020/12/05 09:04:05;;;;;;;10.32;4.10;;;;;;;;;;5053693;28;20094;-57
2020/12/05 09:06:31;;;;;;;12.73;8.55;;;;;;;;;;5048379;28;20403;-56
2020/12/05 09:08:57;;;;;;;13.93;8.45;;;;;;;;;;5061271;28;20028;-56
2020/12/05 09:11:23;;;;;;;;;;;;;;;;;;5068739;28;20036;-60
2020/12/05 09:13:49;;;;;;;14.55;8.98;;;;;;;;;;5058166;28;19917;-60
2020/12/05 09:16:15;;;;;;;9.55;4.68;;;;;;;;;;5048215;28;20531;-57
2020/12/05 09:18:42;;;;;;;7.40;4.63;;;;;;;;;;5046943;28;20033;-59
2020/12/05 09:21:26;;;;;;;8.40;4.80;;;;;;;;;;5048834;28;20075;-58
2020/12/05 09:23:59;;;;;;;10.93;5.55;;;;;;;;;;5053704;28;20049;-59
2020/12/05 09:26:25;;;;;;;8.25;4.30;;;;;;;;;;5068057;28;20049;-56
2020/12/05 09:28:51;;;;;;;7.40;4.03;;;;;;;;;;5066342;28;20536;-57
2020/12/05 09:31:17;;;;;;;7.78;4.30;;;;;;;;;;5066626;28;20029;-58
2020/12/05 09:33:46;;;;;;;7.85;4.78;;;;;;;;;;5065050;28;20120;-59
2020/12/05 09:36:13;;;;;;;8.02;4.47;;;;;;;;;;5054395;28;20047;-57
2020/12/05 09:38:39;;;;;;;7.72;4.55;;;;;;;;;;5046863;28;20033;-55
2020/12/05 09:41:05;;;;;;;7.32;4.38;;;;;;;;;;5048748;28;20090;-59
2020/12/05 09:43:31;;;;;;;7.60;4.57;;;;;;;;;;5048235;28;20029;-60
2020/12/05 09:45:57;;;;;;;7.82;5.07;;;;;;;;;;5066000;28;20064;-57
2020/12/05 09:48:22;;;;;;;8.75;5.35;;;;;;;;;;5067922;28;20075;-56
2020/12/05 09:50:49;;;;;;;8.52;4.75;;;;;;;;;;5066405;28;20028;-57
2020/12/05 09:53:15;;;;;;;9.15;5.45;;;;;;;;;;5067727;28;20603;-56
2020/12/05 09:55:41;;;;;;;10.93;6.47;;;;;;;;;;5067588;28;20048;-56
2020/12/05 09:58:07;;;;;;;;;;;;;;;;;;5068083;28;20465;-57
2020/12/05 10:00:33;;;;;;;10.02;6.63;;;;;;;;;;5065226;28;19920;-58
2020/12/05 10:02:59;;;;;;;10.88;5.97;;;;;;;;;;5049174;28;20064;-58
2020/12/05 10:05:25;;;;;;;8.98;5.43;;;;;;;;;;5056944;28;20662;-58
2020/12/05 10:07:51;;;;;;;15.88;8.93;;;;;;;;;;5065785;28;20522;-58
2020/12/05 10:10:17;;;;;;;8.38;5.57;;;;;;;;;;5067575;28;20094;-57
2020/12/05 10:12:46;;;;;;;9.23;5.57;;;;;;;;;;5067605;28;20043;-59
2020/12/05 10:15:13;;;;;;;7.90;5.32;;;;;;;;;;5053293;28;20040;-58
2020/12/05 10:17:39;;;;;;;10.02;5.97;;;;;;;;;;5047552;28;20060;-56
2020/12/05 10:20:06;;;;;;;11.25;6.25;;;;;;;;;;5047256;28;20080;-59
2020/12/05 10:22:31;;;;;;;10.10;5.85;;;;;;;;;;5047305;28;20067;-60
2020/12/05 10:24:57;;;;;;;10.27;5.88;;;;;;;;;;5059206;28;20068;-59
2020/12/05 10:27:23;;;;;;;11.23;6.50;;;;;;;;;;5065581;28;20036;-57
2020/12/05 10:29:49;;;;;;;9.20;6.38;;;;;;;;;;5067102;28;20044;-60
2020/12/05 10:32:15;;;;;;;;;;;;;;;;;;5066716;28;20495;-60
2020/12/05 10:34:41;;;;;;;10.63;6.13;;;;;;;;;;5059326;28;19966;-58
2020/12/05 10:37:07;;;;;;;9.68;5.85;;;;;;;;;;5050729;28;20035;-59
2020/12/05 10:39:33;;;;;;;11.90;6.78;;;;;;;;;;5066838;28;20033;-60
2020/12/05 10:42:00;;;;;;;9.52;5.30;;;;;;;;;;5061558;28;20112;-57
2020/12/05 10:44:26;;;;;;;8.88;6.07;;;;;;;;;;5046382;28;20120;-60
2020/12/05 10:46:51;;;;;;;11.18;6.82;;;;;;;;;;5045927;28;20128;-57
2020/12/05 10:49:18;;;;;;;9.40;5.85;;;;;;;;;;5046796;28;20036;-57
2020/12/05 10:51:44;;;;;;;10.48;5.82;;;;;;;;;;5058076;28;20041;-55
2020/12/05 10:54:10;;;;;;;8.88;5.57;;;;;;;;;;5067105;28;20040;-59
2020/12/05 10:56:37;;;;;;;10.40;4.65;;;;;;;;;;5066726;28;20541;-59
2020/12/05 10:59:04;;;;;;;8.45;5.10;;;;;;;;;;5066763;28;20095;-59
2020/12/05 11:01:29;;;;;;;8.65;5.18;;;;;;;;;;5065886;28;20408;-59
2020/12/05 11:03:55;;;;;;;7.53;4.40;;;;;;;;;;5046818;28;20041;-59
2020/12/05 11:06:26;;;;;;;11.02;5.78;;;;;;;;;;5046918;28;20116;-58
2020/12/05 11:08:52;;;;;;;8.65;4.82;;;;;;;;;;5056972;28;20032;-59
2020/12/05 11:11:18;;;;;;;8.77;4.80;;;;;;;;;;5066857;28;20070;-62
2020/12/05 11:13:44;;;;;;;8.40;4.10;;;;;;;;;;5047634;28;20048;-61
2020/12/05 11:16:10;;;;;;;8.27;4.70;;;;;;;;;;5054211;28;20035;-59
2020/12/05 11:18:36;;;;;;;6.07;3.95;;;;;;;;;;5066513;28;20044;-57
2020/12/05 11:21:02;;;;;;;;;;;;;;;;;;5067212;28;20066;-58
2020/12/05 11:23:28;;;;;;;8.40;4.28;;;;;;;;;;5051200;28;20376;-57
2020/12/05 11:25:54;;;;;;;9.15;4.10;;;;;;;;;;5046498;28;20041;-59
2020/12/05 11:28:20;;;;;;;;;;;;;;;;;;5046773;28;20080;-59
2020/12/05 11:30:46;;;;;;;6.10;3.70;;;;;;;;;;5046045;28;20433;-58
2020/12/05 11:33:12;;;;;;;7.82;4.88;;;;;;;;;;5047868;28;20037;-59
2020/12/05 11:35:38;;;;;;;9.77;5.85;;;;;;;;;;5046341;28;20515;-59
2020/12/05 11:38:04;;;;;;;;;;;;;;;;;;5064400;28;20033;-59
2020/12/05 11:40:30;;;;;;;32.83;19.60;;;;;;;;;;5066447;28;19960;-59
2020/12/05 11:42:56;;;;;;;11.05;6.93;;;;;;;;;;5065421;28;20503;-56
2020/12/05 11:45:22;;;;;;;6.90;4.40;;;;;;;;;;5045615;28;20049;-58
2020/12/05 11:47:48;;;;;;;;;;;;;;;;;;5061695;28;20419;-58
2020/12/05 11:50:14;;;;;;;6.50;3.60;;;;;;;;;;5066072;28;20384;-58
2020/12/05 11:52:40;;;;;;;;;;;;;;;;;;5046564;28;20065;-59
2020/12/05 11:55:06;;;;;;;5.55;3.50;;;;;;;;;;5046283;28;19916;-59
2020/12/05 11:57:31;;;;;;;6.00;3.55;;;;;;;;;;5057276;28;20727;-57
2020/12/05 11:59:57;;;;;;;7.07;3.90;;;;;;;;;;5065805;28;20064;-59
2020/12/05 12:02:23;;;;;;;7.97;4.00;;;;;;;;;;5065970;28;20079;-58
2020/12/05 12:04:49;;;;;;;8.65;3.95;;;;;;;;;;5069199;28;20044;-61
2020/12/05 12:07:15;;;;;;;;;;;;;;;;;;5068217;28;20452;-59
2020/12/05 12:09:41;;;;;;;8.13;2.60;;;;;;;;;;5069475;28;19920;-58
2020/12/05 12:12:07;;;;;;;6.28;3.50;;;;;;;;;;5066111;28;20040;-60
2020/12/05 12:14:33;;;;;;;7.03;4.55;;;;;;;;;;5069719;28;20048;-60
2020/12/05 12:16:59;;;;;;;8.68;4.07;;;;;;;;;;5050716;28;20037;-59
2020/12/05 12:19:25;;;;;;;11.32;4.70;;;;;;;;;;5049601;28;20040;-58
2020/12/05 12:21:51;;;;;;;7.18;4.70;;;;;;;;;;5049828;28;20066;-56
2020/12/05 12:24:17;;;;;;;6.90;4.38;;;;;;;;;;5061249;28;20101;-59
2020/12/05 12:26:43;;;;;;;7.15;4.50;;;;;;;;;;5068072;28;20040;-60
2020/12/05 12:29:09;;;;;;;;;;;;;;;;;;5070115;28;20036;-60
2020/12/05 12:31:34;;;;;;;7.55;4.25;;;;;;;;;;5063527;28;20030;-59
2020/12/05 12:34:00;;;;;;;;;;;;;;;;;;5067896;28;20037;-60
2020/12/05 12:36:26;;;;;;;8.90;4.45;;;;;;;;;;5069046;28;20283;-60
2020/12/05 12:38:52;;;;;;;7.00;4.82;;;;;;;;;;5069690;28;20063;-58
2020/12/05 12:41:19;;;;;;;7.40;4.70;;;;;;;;;;5052817;28;20492;-61
2020/12/05 12:43:45;;;;;;;8.43;4.63;;;;;;;;;;5050405;28;20731;-60
2020/12/05 12:46:13;;;;;;;7.07;4.63;;;;;;;;;;5051214;28;20036;-60
2020/12/05 12:48:39;;;;;;;6.75;4.28;;;;;;;;;;5049176;28;20041;-61
2020/12/05 12:51:07;;;;;;;32.28;17.70;;;;;;;;;;5056536;28;20057;-60
2020/12/05 12:53:33;;;;;;;20.27;11.00;;;;;;;;;;5069559;28;20035;-58
2020/12/05 12:55:59;;;;;;;14.82;6.78;;;;;;;;;;5069142;28;20127;-59
2020/12/05 13:00:59;;;;;;;8.15;5.22;;;;;;;;;;5049974;28;20353;-61
2020/12/05 13:03:25;;;;;;;7.03;4.63;;;;;;;;;;5049461;28;20037;-61
2020/12/05 13:05:52;;;;;;;9.00;5.50;;;;;;;;;;5048081;28;20033;-61
2020/12/05 13:08:18;;;;;;;9.50;6.00;;;;;;;;;;5055793;28;20033;-61
2020/12/05 13:10:43;;;;;;;9.48;5.63;;;;;;;;;;5069123;28;20036;-61
2020/12/05 13:13:09;;;;;;;;;;;;;;;;;;5068769;28;20124;-62
2020/12/05 13:15:36;;;;;;;13.63;7.65;;;;;;;;;;5067408;28;19916;-62
2020/12/05 13:18:02;;;;;;;8.98;5.78;;;;;;;;;;5068043;28;20151;-63
2020/12/05 13:20:28;;;;;;;9.05;5.80;;;;;;;;;;5068519;28;20033;-61
2020/12/05 13:22:54;;;;;;;11.68;6.75;;;;;;;;;;5068363;28;20044;-62
2020/12/05 13:25:20;;;;;;;10.77;6.55;;;;;;;;;;5068442;28;20140;-58
2020/12/05 13:27:46;;;;;;;12.68;7.72;;;;;;;;;;5065472;28;20159;-58
2020/12/05 13:30:12;;;;;;;20.17;9.25;;;;;;;;;;5047597;28;20891;-61
2020/12/05 13:32:38;;;;;;;10.88;6.53;;;;;;;;;;5049292;28;20064;-59
2020/12/05 13:35:04;;;;;;;84.00;11.48;;;;;;;;;;5047995;28;20036;-60
2020/12/05 13:37:30;;;;;;;12.48;6.78;;;;;;;;;;5048017;28;20037;-61
2020/12/05 13:39:56;;;;;;;;;;;;;;;;;;5048027;28;20496;-60
2020/12/05 13:42:22;;;;;;;10.90;6.15;;;;;;;;;;5048329;28;19917;-60
2020/12/05 13:44:48;;;;;;;12.25;6.97;;;;;;;;;;5048103;28;20041;-59
2020/12/05 13:47:14;;;;;;;11.25;6.57;;;;;;;;;;5048581;28;20125;-60
2020/12/05 13:49:40;;;;;;;305.63;26.40;;;;;;;;;;5047747;28;20563;-59
2020/12/05 13:52:06;;;;;;;;;;;;;;;;;;5063737;28;20040;-60
2020/12/05 13:54:32;;;;;;;10.23;6.28;;;;;;;;;;5067592;28;19916;-60
2020/12/05 13:56:58;;;;;;;10.90;7.28;;;;;;;;;;5051450;28;20033;-61
2020/12/05 13:59:24;;;;;;;11.35;7.60;;;;;;;;;;5048045;28;20036;-58
2020/12/05 14:01:54;;;;;;;12.63;7.07;;;;;;;;;;5046600;28;20037;-60
2020/12/05 14:04:20;;;;;;;12.00;7.10;;;;;;;;;;5047049;28;20039;-61
2020/12/05 14:06:46;;;;;;;10.52;6.50;;;;;;;;;;5046978;28;20393;-60
2020/12/05 14:09:13;;;;;;;12.80;7.00;;;;;;;;;;5057841;28;20028;-59
2020/12/05 14:11:39;;;;;;;17.15;8.20;;;;;;;;;;5047914;28;20033;-61
2020/12/05 14:14:05;;;;;;;11.38;6.50;;;;;;;;;;5054629;28;20636;-60
2020/12/05 14:16:31;;;;;;;;;;;;;;;;;;5067527;28;20127;-60
2020/12/05 14:18:57;;;;;;;11.60;6.90;;;;;;;;;;5067547;28;19916;-60
2020/12/05 14:21:24;;;;;;;13.43;8.18;;;;;;;;;;5049010;28;20032;-60
2020/12/05 14:23:50;;;;;;;11.60;7.13;;;;;;;;;;5047382;28;20098;-59
2020/12/05 14:26:20;;;;;;;11.57;7.43;;;;;;;;;;5046067;28;20045;-61
2020/12/05 14:28:46;;;;;;;14.40;7.07;;;;;;;;;;5062539;28;20095;-61
2020/12/05 14:31:12;;;;;;;11.48;6.75;;;;;;;;;;5051174;28;20040;-60
2020/12/05 14:33:38;;;;;;;18.75;11.00;;;;;;;;;;5047231;28;20032;-60
2020/12/05 14:36:04;;;;;;;;;;;;;;;;;;5049295;28;20041;-60
2020/12/05 14:38:30;;;;;;;11.43;6.47;;;;;;;;;;5046781;28;19924;-60
2020/12/05 14:40:56;;;;;;;10.82;5.97;;;;;;;;;;5055961;28;20123;-60
2020/12/05 14:43:22;;;;;;;8.93;5.82;;;;;;;;;;5063728;28;20123;-62
2020/12/05 14:45:48;;;;;;;10.70;5.68;;;;;;;;;;5045201;28;20071;-61